Time;durP1;ratioP1;P1;durP2;ratioP2;P2;SDS_P1;SDS_P2;PMS_P1;PMS_P2;Temp;Humidity;BMP_temperature;BMP_pressure;BME280_temperature;BME280_humidity;BME280_pressure;Samples;Min_cycle;Max_cycle;Signal;HPM_P1;HPM_P2
2024/01/26 00:01:13;;;;;;;3.50;0.70;;;;;;;5.82;61.27;99478.27;105498;1254;64951;-57
2024/01/26 00:03:41;;;;;;;2.70;0.70;;;;;;;5.76;61.01;99480.73;106274;1254;61829;-55
2024/01/26 00:06:08;;;;;;;2.80;0.50;;;;;;;5.69;61.05;99476.25;105088;1254;63780;-56
2024/01/26 00:08:36;;;;;;;3.00;0.90;;;;;;;5.65;61.31;99474.45;105206;1259;60440;-55
2024/01/26 00:11:04;;;;;;;3.90;1.40;;;;;;;5.70;61.36;99473.36;105230;1257;60340;-55
2024/01/26 00:13:31;;;;;;;1.80;0.40;;;;;;;5.81;61.23;99475.34;105195;1259;64859;-55
2024/01/26 00:15:59;;;;;;;3.00;0.90;;;;;;;5.93;61.00;99478.96;105780;1253;72715;-55
2024/01/26 00:18:27;;;;;;;2.40;0.50;;;;;;;6.00;60.64;99484.17;106457;1254;64326;-56
2024/01/26 00:20:55;;;;;;;2.40;0.50;;;;;;;5.99;60.27;99490.56;105294;1254;60680;-56
2024/01/26 00:23:23;;;;;;;1.80;0.40;;;;;;;5.93;60.46;99488.90;105093;1254;60332;-57
2024/01/26 00:25:50;;;;;;;1.90;0.60;;;;;;;5.88;60.50;99489.29;105109;1254;65001;-57
2024/01/26 00:28:18;;;;;;;2.10;0.40;;;;;;;5.78;60.42;99493.63;105191;1259;60454;-56
2024/01/26 00:30:45;;;;;;;3.90;0.70;;;;;;;5.68;60.65;99493.68;105181;1254;63862;-57
2024/01/26 00:33:13;;;;;;;2.10;0.50;;;;;;;5.61;60.85;99498.52;105050;1260;60370;-57
2024/01/26 00:35:41;;;;;;;2.40;1.00;;;;;;;5.52;60.99;99501.27;105142;1253;60517;-55
2024/01/26 00:38:09;;;;;;;2.40;0.60;;;;;;;5.48;61.11;99497.42;104980;1254;65402;-55
2024/01/26 00:40:36;;;;;;;3.20;0.70;;;;;;;5.50;61.14;99499.73;105123;1254;61369;-55
2024/01/26 00:43:03;;;;;;;1.70;0.50;;;;;;;5.50;61.25;99500.79;105003;1254;62518;-56
2024/01/26 00:45:31;;;;;;;3.90;0.70;;;;;;;5.53;61.30;99503.83;105178;1254;60533;-56
2024/01/26 00:47:59;;;;;;;1.80;0.50;;;;;;;5.54;61.36;99504.83;105071;1257;60484;-57
2024/01/26 00:50:27;;;;;;;3.30;0.70;;;;;;;5.51;61.50;99508.20;105121;1254;65337;-56
2024/01/26 00:52:54;;;;;;;1.30;0.50;;;;;;;5.45;61.64;99507.73;105304;1253;61331;-57
2024/01/26 00:55:22;;;;;;;7.50;2.30;;;;;;;5.40;61.75;99508.40;105832;1255;62437;-57
2024/01/26 00:57:50;;;;;;;2.10;0.70;;;;;;;5.36;61.86;99506.94;106101;1253;59234;-58
2024/01/26 01:00:18;;;;;;;4.90;1.40;;;;;;;5.34;62.01;99509.23;105204;1259;60361;-57
2024/01/26 01:02:45;;;;;;;4.80;1.20;;;;;;;5.32;62.10;99512.18;105188;1254;64919;-59
2024/01/26 01:05:13;;;;;;;3.80;1.20;;;;;;;5.27;62.13;99512.02;105263;1259;70592;-59
2024/01/26 01:07:42;;;;;;;2.50;0.70;;;;;;;5.25;62.15;99511.48;106380;1254;63727;-59
2024/01/26 01:10:11;;;;;;;3.10;0.80;;;;;;;5.29;62.14;99514.45;105484;1253;60468;-58
2024/01/26 01:12:39;;;;;;;4.10;0.70;;;;;;;5.31;62.15;99515.02;105284;1254;60425;-58
2024/01/26 01:15:11;;;;;;;2.20;0.50;;;;;;;5.34;62.08;99514.44;105524;1259;66015;-58
2024/01/26 01:17:39;;;;;;;3.00;1.20;;;;;;;5.38;62.13;99523.14;106351;1254;61445;-59
2024/01/26 01:20:11;;;;;;;2.40;0.90;;;;;;;5.41;62.01;99521.09;105473;1259;64414;-58
2024/01/26 01:22:47;;;;;;;1.70;0.60;;;;;;;5.36;61.99;99525.95;105214;1254;60441;-59
2024/01/26 01:25:15;;;;;;;2.60;0.70;;;;;;;5.27;62.03;99525.02;105277;1253;60658;-58
2024/01/26 01:27:43;;;;;;;3.10;1.00;;;;;;;5.19;62.24;99525.08;105325;1258;63668;-58
2024/01/26 01:30:11;;;;;;;3.90;0.90;;;;;;;5.14;62.45;99526.45;105200;1254;61567;-60
2024/01/26 01:32:38;;;;;;;2.10;0.60;;;;;;;5.10;62.63;99531.80;105284;1254;62438;-59
2024/01/26 01:35:07;;;;;;;2.30;0.60;;;;;;;5.11;62.65;99532.75;104936;1255;60786;-58
2024/01/26 01:37:34;;;;;;;3.70;0.50;;;;;;;5.16;62.61;99536.23;105652;1259;60563;-58
2024/01/26 01:40:02;;;;;;;2.10;0.50;;;;;;;5.24;62.73;99536.52;106351;1254;65422;-57
2024/01/26 01:42:30;;;;;;;1.90;0.30;;;;;;;5.31;62.66;99536.57;105576;1254;61321;-57
2024/01/26 01:44:57;;;;;;;2.00;0.40;;;;;;;5.32;62.72;99540.14;105040;1259;63769;-57
2024/01/26 01:47:25;;;;;;;2.50;0.50;;;;;;;5.29;62.87;99543.83;105129;1257;60488;-58
2024/01/26 01:49:53;;;;;;;2.60;0.60;;;;;;;5.26;62.92;99544.61;104919;1253;60446;-59
2024/01/26 01:52:20;;;;;;;3.00;0.80;;;;;;;5.20;62.97;99548.48;105056;1259;64857;-59
2024/01/26 01:54:48;;;;;;;3.00;0.80;;;;;;;5.14;62.95;99544.74;105108;1259;60460;-58
2024/01/26 01:57:15;;;;;;;2.60;0.70;;;;;;;5.06;63.11;99549.09;105046;1254;63814;-58
2024/01/26 01:59:43;;;;;;;2.10;0.50;;;;;;;4.99;63.43;99548.72;105111;1254;60493;-56
2024/01/26 02:02:11;;;;;;;3.50;0.60;;;;;;;5.01;63.42;99549.65;105234;1253;60511;-55
2024/01/26 02:04:39;;;;;;;2.50;0.60;;;;;;;5.08;63.39;99552.30;105072;1259;64867;-57
2024/01/26 02:07:06;;;;;;;2.40;0.50;;;;;;;5.15;63.53;99553.02;105080;1259;60444;-57
2024/01/26 02:09:34;;;;;;;1.80;0.50;;;;;;;5.17;63.70;99552.33;106121;1256;64255;-57
2024/01/26 02:12:02;;;;;;;1.00;0.20;;;;;;;5.17;63.66;99556.15;105069;1259;60705;-57
2024/01/26 02:14:29;;;;;;;3.50;0.90;;;;;;;5.15;63.69;99560.45;104985;1254;60370;-57
2024/01/26 02:16:58;;;;;;;1.70;0.60;;;;;;;5.10;63.74;99562.41;105126;1253;64945;-60
2024/01/26 02:19:27;;;;;;;2.40;0.60;;;;;;;4.93;64.19;99567.55;106135;1254;61326;-56
2024/01/26 02:21:54;;;;;;;2.30;0.60;;;;;;;4.95;64.16;99567.56;105845;1255;63864;-56
2024/01/26 02:24:22;;;;;;;2.50;0.50;;;;;;;4.97;63.97;99573.34;105116;1254;60554;-58
2024/01/26 02:26:49;;;;;;;2.50;0.50;;;;;;;4.93;64.05;99569.27;105196;1254;60721;-57
2024/01/26 02:29:17;;;;;;;1.90;0.60;;;;;;;4.89;64.23;99572.52;104978;1259;68089;-58
2024/01/26 02:31:44;;;;;;;2.70;0.60;;;;;;;4.92;64.04;99572.99;105144;1253;61917;-58
2024/01/26 02:34:13;;;;;;;2.20;0.70;;;;;;;4.98;63.95;99572.59;105180;1259;62471;-57
2024/01/26 02:36:41;;;;;;;1.30;0.30;;;;;;;5.04;63.88;99570.59;105220;1255;60646;-58
2024/01/26 02:39:10;;;;;;;2.50;0.60;;;;;;;5.11;63.85;99571.85;105150;1253;60536;-57
2024/01/26 02:41:39;;;;;;;2.70;0.80;;;;;;;5.18;63.74;99574.20;105524;1254;63685;-58
2024/01/26 02:44:09;;;;;;;3.90;1.50;;;;;;;5.16;63.60;99576.58;105040;1253;61676;-57
2024/01/26 02:46:36;;;;;;;1.80;0.50;;;;;;;5.09;63.62;99579.35;105401;1254;63698;-58
2024/01/26 02:49:05;;;;;;;3.30;0.80;;;;;;;5.06;63.77;99579.06;105467;1254;60521;-58
2024/01/26 02:51:33;;;;;;;2.60;0.70;;;;;;;5.05;63.83;99584.83;105741;1257;61020;-58
2024/01/26 02:54:01;;;;;;;2.60;0.80;;;;;;;5.03;63.83;99587.36;105623;1253;63821;-58
2024/01/26 02:56:28;;;;;;;1.90;0.60;;;;;;;5.00;63.84;99591.23;105808;1254;61577;-58
2024/01/26 02:58:56;;;;;;;2.20;0.80;;;;;;;4.97;63.74;99595.09;106546;1255;64255;-57
2024/01/26 03:01:23;;;;;;;2.10;0.60;;;;;;;4.92;63.61;99594.77;105724;1256;60521;-57
2024/01/26 03:03:51;;;;;;;3.20;0.70;;;;;;;4.92;63.49;99596.15;105083;1259;60374;-58
2024/01/26 03:06:19;;;;;;;1.50;0.50;;;;;;;4.96;63.27;99600.18;106659;1258;64989;-58
2024/01/26 03:08:47;;;;;;;1.90;0.50;;;;;;;4.99;63.32;99603.46;105173;1253;60544;-59
2024/01/26 03:11:14;;;;;;;1.90;0.40;;;;;;;5.02;63.20;99603.21;105229;1256;64179;-59
2024/01/26 03:13:42;;;;;;;2.50;0.40;;;;;;;5.04;63.10;99604.02;105193;1254;60664;-58
2024/01/26 03:16:10;;;;;;;2.30;0.60;;;;;;;5.05;63.15;99607.27;105211;1253;60925;-58
2024/01/26 03:18:38;;;;;;;4.80;2.10;;;;;;;5.05;63.26;99609.88;105435;1253;65359;-56
2024/01/26 03:21:06;;;;;;;7.60;2.40;;;;;;;5.03;63.19;99612.28;105196;1254;61357;-59
2024/01/26 03:23:33;;;;;;;11.00;5.30;;;;;;;5.01;63.17;99609.78;105631;1257;63684;-60
2024/01/26 03:26:01;;;;;;;15.40;6.90;;;;;;;5.00;63.20;99611.25;106382;1257;60559;-59
2024/01/26 03:28:29;;;;;;;13.60;6.00;;;;;;;4.98;63.12;99615.16;105244;1259;60582;-57
2024/01/26 03:30:57;;;;;;;10.30;5.60;;;;;;;4.96;62.98;99618.95;106674;1254;64822;-54
2024/01/26 03:33:24;;;;;;;7.90;2.90;;;;;;;4.93;62.93;99622.15;105171;1258;60279;-57
2024/01/26 03:35:52;;;;;;;4.10;1.60;;;;;;;4.91;62.98;99626.80;106751;1255;63791;-57
2024/01/26 03:38:20;;;;;;;3.20;0.80;;;;;;;4.93;62.79;99627.54;105801;1254;60436;-57
2024/01/26 03:40:47;;;;;;;2.40;0.60;;;;;;;5.00;62.56;99626.55;105233;1260;60453;-58
2024/01/26 03:43:15;;;;;;;3.00;0.80;;;;;;;5.04;62.54;99630.75;105132;1254;64979;-58
2024/01/26 03:45:43;;;;;;;2.90;0.90;;;;;;;5.07;62.49;99628.00;105341;1254;62313;-56
2024/01/26 03:48:11;;;;;;;4.80;1.60;;;;;;;5.13;62.55;99629.84;105260;1254;63976;-56
2024/01/26 03:50:39;;;;;;;5.70;2.00;;;;;;;5.22;62.51;99634.42;105244;1254;60667;-57
2024/01/26 03:53:06;;;;;;;5.10;1.50;;;;;;;5.23;62.45;99637.11;105195;1259;61041;-60
2024/01/26 03:55:35;;;;;;;3.30;1.10;;;;;;;5.18;62.38;99636.41;105566;1259;65083;-59
2024/01/26 03:58:03;;;;;;;3.90;1.00;;;;;;;5.11;62.50;99631.71;105167;1254;61521;-58
2024/01/26 04:00:32;;;;;;;3.30;1.10;;;;;;;5.05;62.67;99632.09;106389;1259;64849;-59
2024/01/26 04:02:59;;;;;;;2.20;0.70;;;;;;;5.01;62.77;99636.00;105206;1255;60575;-57
2024/01/26 04:05:27;;;;;;;3.20;1.00;;;;;;;4.99;62.77;99643.98;105722;1257;60677;-55
2024/01/26 04:07:55;;;;;;;2.70;0.70;;;;;;;4.94;62.79;99647.08;105926;1254;65093;-56
2024/01/26 04:10:22;;;;;;;3.80;1.50;;;;;;;4.91;62.89;99647.82;105266;1254;61388;-56
2024/01/26 04:12:50;;;;;;;2.70;0.80;;;;;;;4.89;62.97;99648.81;105188;1257;62576;-58
2024/01/26 04:15:18;;;;;;;3.10;0.80;;;;;;;4.85;63.10;99652.92;105214;1254;60530;-55
2024/01/26 04:17:45;;;;;;;5.60;1.50;;;;;;;4.89;62.99;99656.98;106016;1255;60380;-55
2024/01/26 04:20:13;;;;;;;2.10;0.50;;;;;;;4.95;62.92;99659.51;105191;1254;65081;-55
2024/01/26 04:22:42;;;;;;;2.90;0.80;;;;;;;4.99;62.83;99661.50;105126;1253;61936;-56
2024/01/26 04:25:10;;;;;;;2.30;0.40;;;;;;;5.01;62.78;99663.98;105063;1259;63820;-56
2024/01/26 04:27:37;;;;;;;2.00;0.70;;;;;;;5.03;62.73;99664.19;105243;1259;60475;-55
2024/01/26 04:30:06;;;;;;;5.00;1.00;;;;;;;5.07;62.81;99658.71;105157;1255;60329;-56
2024/01/26 04:32:34;;;;;;;5.20;2.80;;;;;;;5.09;62.85;99663.48;105613;1259;65358;-57
2024/01/26 04:35:02;;;;;;;4.50;1.00;;;;;;;5.09;62.79;99664.02;105640;1254;61364;-57
2024/01/26 04:37:29;;;;;;;5.70;2.40;;;;;;;5.05;62.83;99664.11;105240;1254;63665;-57
2024/01/26 04:39:57;;;;;;;23.70;8.60;;;;;;;5.00;62.87;99671.20;105264;1254;60447;-60
2024/01/26 04:42:24;;;;;;;37.40;17.20;;;;;;;4.96;62.87;99677.59;106488;1253;301215;-56
2024/01/26 04:58:05;;;;;;;6.80;2.40;;;;;;;4.83;63.41;99680.95;102916;1283;604414;-55
2024/01/26 05:00:33;;;;;;;5.60;2.20;;;;;;;5.43;61.82;99691.41;104180;1272;124654;-54
2024/01/26 05:03:00;;;;;;;5.90;3.50;;;;;;;5.39;61.84;99695.98;104267;1267;59627;-55
2024/01/26 05:05:28;;;;;;;5.50;1.60;;;;;;;5.33;61.85;99696.45;104305;1266;62101;-56
2024/01/26 05:07:56;;;;;;;4.80;1.30;;;;;;;5.29;61.83;99698.09;104896;1267;64038;-55
2024/01/26 05:10:24;;;;;;;3.70;0.70;;;;;;;5.27;61.80;99703.98;104311;1269;63830;-55
2024/01/26 05:12:51;;;;;;;2.60;0.70;;;;;;;5.25;61.88;99708.45;104215;1267;59378;-55
2024/01/26 05:15:19;;;;;;;3.50;0.80;;;;;;;5.25;61.97;99712.79;104300;1267;59349;-55
2024/01/26 05:17:47;;;;;;;4.70;2.20;;;;;;;5.25;62.04;99712.09;104474;1267;62068;-59
2024/01/26 05:20:15;;;;;;;4.90;2.40;;;;;;;5.21;62.19;99713.21;104221;1266;61361;-55
2024/01/26 05:22:43;;;;;;;5.00;1.60;;;;;;;5.19;62.28;99713.21;104419;1270;63692;-58
2024/01/26 05:25:10;;;;;;;4.20;0.90;;;;;;;5.19;62.33;99714.77;104581;1267;59743;-58
2024/01/26 05:27:40;;;;;;;2.90;0.90;;;;;;;5.17;62.44;99715.60;104814;1261;59800;-56
2024/01/26 05:30:08;;;;;;;4.80;1.40;;;;;;;5.15;62.52;99719.74;104714;1258;62849;-56
2024/01/26 05:32:36;;;;;;;3.00;1.50;;;;;;;5.11;62.56;99721.04;104852;1260;61440;-57
2024/01/26 05:35:04;;;;;;;3.90;1.00;;;;;;;5.04;62.54;99722.56;104666;1260;64910;-58
2024/01/26 05:37:32;;;;;;;2.70;0.70;;;;;;;4.97;62.62;99729.30;105068;1260;59405;-57
2024/01/26 05:40:04;;;;;;;3.70;0.90;;;;;;;4.92;62.62;99728.60;104689;1263;59564;-58
2024/01/26 05:42:32;;;;;;;4.80;1.60;;;;;;;4.84;62.60;99735.02;105168;1260;64607;-56
2024/01/26 05:45:01;;;;;;;5.60;1.80;;;;;;;4.80;62.74;99734.94;104678;1261;61507;-55
2024/01/26 05:47:29;;;;;;;2.70;0.90;;;;;;;4.87;62.75;99740.36;105763;1260;63708;-57
2024/01/26 05:49:57;;;;;;;3.00;0.90;;;;;;;4.97;62.64;99747.40;104714;1261;59758;-57
2024/01/26 05:52:24;;;;;;;3.00;0.80;;;;;;;5.05;62.59;99755.54;104511;1260;59529;-56
2024/01/26 05:54:52;;;;;;;3.80;1.40;;;;;;;5.11;62.38;99760.67;104472;1260;64120;-55
2024/01/26 05:57:20;;;;;;;7.90;2.50;;;;;;;5.16;62.32;99764.88;104490;1260;61418;-57
2024/01/26 05:59:47;;;;;;;7.70;2.80;;;;;;;5.22;62.15;99768.09;104350;1260;63782;-55
2024/01/26 06:02:15;;;;;;;9.20;4.00;;;;;;;5.21;62.21;99776.20;104408;1260;59391;-55
2024/01/26 06:04:42;;;;;;;9.70;4.70;;;;;;;5.17;62.27;99781.14;104561;1261;62731;-56
2024/01/26 06:07:10;;;;;;;8.10;3.80;;;;;;;5.11;62.29;99781.38;104617;1260;62858;-55
2024/01/26 06:09:40;;;;;;;9.80;3.90;;;;;;;5.06;62.37;99783.81;104601;1260;62111;-55
2024/01/26 06:12:07;;;;;;;8.10;3.50;;;;;;;5.02;62.55;99785.62;104687;1266;63462;-56
2024/01/26 06:14:35;;;;;;;5.00;1.80;;;;;;;5.02;62.57;99786.30;108694;1260;57516;-57
2024/01/26 06:17:03;;;;;;;5.30;1.50;;;;;;;4.98;62.50;99788.11;105196;1265;59651;-56
2024/01/26 06:19:30;;;;;;;3.90;1.30;;;;;;;4.96;62.56;99789.11;104523;1260;63038;-58
2024/01/26 06:21:58;;;;;;;3.00;1.30;;;;;;;4.93;62.57;99786.88;104620;1265;61379;-56
2024/01/26 06:24:27;;;;;;;4.10;1.10;;;;;;;4.87;62.56;99788.86;105213;1259;63751;-50
2024/01/26 06:26:54;;;;;;;3.50;1.00;;;;;;;4.82;62.48;99791.46;104656;1263;59745;-56
2024/01/26 06:29:22;;;;;;;3.60;1.00;;;;;;;4.85;62.49;99794.05;104683;1265;59694;-55
2024/01/26 06:31:50;;;;;;;3.60;0.90;;;;;;;4.89;62.55;99793.80;104702;1257;64160;-56
2024/01/26 06:34:17;;;;;;;3.20;1.10;;;;;;;4.97;62.64;99799.48;105486;1260;61530;-55
2024/01/26 06:36:46;;;;;;;3.10;0.60;;;;;;;5.06;62.62;99803.43;104815;1266;63701;-56
2024/01/26 06:39:14;;;;;;;4.10;1.20;;;;;;;5.13;62.53;99810.30;108232;1260;57756;-56
2024/01/26 06:41:42;;;;;;;8.70;3.00;;;;;;;5.18;62.64;99815.14;104689;1262;59656;-55
2024/01/26 06:44:10;;;;;;;12.90;5.80;;;;;;;5.20;62.52;99818.45;107456;1260;62887;-60
2024/01/26 06:46:37;;;;;;;20.10;9.60;;;;;;;5.20;62.49;99816.23;105887;1260;61545;-59
2024/01/26 06:49:05;;;;;;;18.00;8.80;;;;;;;5.22;62.62;99819.58;104690;1263;64274;-59
2024/01/26 06:51:33;;;;;;;14.20;6.90;;;;;;;5.23;62.62;99821.09;104714;1260;59685;-62
2024/01/26 06:54:01;;;;;;;13.50;8.70;;;;;;;5.23;62.49;99825.84;104616;1260;59397;-62
2024/01/26 06:56:29;;;;;;;7.50;3.60;;;;;;;5.18;62.26;99829.58;104442;1260;62933;-62
2024/01/26 06:58:57;;;;;;;5.40;2.00;;;;;;;5.10;62.29;99833.59;104616;1260;70156;-63
2024/01/26 07:01:24;;;;;;;6.20;2.10;;;;;;;5.08;62.59;99837.20;106171;1260;72724;-63
2024/01/26 07:03:52;;;;;;;4.20;1.50;;;;;;;5.07;62.55;99839.39;104483;1261;59650;-62
2024/01/26 07:06:20;;;;;;;3.20;1.10;;;;;;;5.07;62.51;99840.73;104801;1259;59704;-62
2024/01/26 07:08:48;;;;;;;3.50;1.20;;;;;;;5.06;62.22;99842.93;105585;1260;64140;-63
2024/01/26 07:11:18;;;;;;;3.50;0.80;;;;;;;5.03;61.92;99845.73;104832;1260;62900;-60
2024/01/26 07:13:46;;;;;;;3.40;0.90;;;;;;;5.05;62.15;99853.09;104379;1266;62495;-61
2024/01/26 07:16:13;;;;;;;3.40;0.90;;;;;;;5.11;62.27;99861.23;107558;1259;59706;-61
2024/01/26 07:18:41;;;;;;;4.50;0.80;;;;;;;5.20;62.30;99864.44;105004;1265;59717;-62
2024/01/26 07:21:10;;;;;;;3.90;1.10;;;;;;;5.27;62.24;99865.36;104637;1260;62894;-63
2024/01/26 07:23:41;;;;;;;5.80;1.90;;;;;;;5.26;62.14;99867.00;104682;1264;60385;-64
2024/01/26 07:26:09;;;;;;;3.60;1.00;;;;;;;5.21;62.29;99866.61;104876;1257;63786;-64
2024/01/26 07:28:36;;;;;;;4.10;1.60;;;;;;;5.21;62.42;99874.63;105055;1257;60353;-61
2024/01/26 07:31:04;;;;;;;5.00;1.60;;;;;;;5.23;62.54;99877.58;104883;1257;59724;-61
2024/01/26 07:33:31;;;;;;;5.10;1.70;;;;;;;5.25;62.38;99883.58;108865;1254;64107;-63
2024/01/26 07:35:59;;;;;;;3.60;1.20;;;;;;;5.18;62.42;99881.39;105479;1256;70128;-61
2024/01/26 07:38:27;;;;;;;4.80;1.40;;;;;;;5.15;62.49;99884.54;105092;1257;64280;-64
2024/01/26 07:40:54;;;;;;;5.20;1.90;;;;;;;5.17;62.68;99881.66;105104;1259;59804;-65
2024/01/26 07:43:22;;;;;;;3.70;1.20;;;;;;;5.25;62.71;99882.69;105025;1259;59712;-64
2024/01/26 07:45:49;;;;;;;4.10;1.20;;;;;;;5.39;62.56;99884.92;105155;1259;64057;-64
2024/01/26 07:48:17;;;;;;;4.50;1.80;;;;;;;5.46;62.04;99888.48;108869;1256;61411;-63
2024/01/26 07:50:45;;;;;;;6.00;1.40;;;;;;;5.50;62.04;99889.93;108985;1256;63745;-63
2024/01/26 07:53:13;;;;;;;3.10;1.10;;;;;;;5.55;62.07;99895.64;109021;1255;57543;-63
2024/01/26 07:55:41;;;;;;;4.70;2.20;;;;;;;5.63;62.15;99901.91;108973;1257;57724;-62
2024/01/26 07:58:08;;;;;;;7.30;3.00;;;;;;;5.69;61.90;99907.78;109007;1254;64110;-63
2024/01/26 08:00:36;;;;;;;5.10;1.80;;;;;;;5.66;61.65;99911.13;108992;1254;60103;-63
2024/01/26 08:03:03;;;;;;;4.00;1.60;;;;;;;5.64;61.73;99916.46;108998;1254;62531;-64
2024/01/26 08:05:31;;;;;;;7.10;3.00;;;;;;;5.65;61.67;99921.98;108915;1254;57684;-64
2024/01/26 08:07:59;;;;;;;5.80;2.10;;;;;;;5.63;61.53;99925.80;106550;1254;59673;-61
2024/01/26 08:10:27;;;;;;;5.30;1.60;;;;;;;5.60;61.63;99926.48;105029;1254;64722;-62
2024/01/26 08:12:55;;;;;;;6.40;1.90;;;;;;;5.60;61.67;99930.82;105117;1260;60231;-63
2024/01/26 08:15:26;;;;;;;3.90;1.60;;;;;;;5.68;61.64;99933.96;104931;1257;63914;-62
2024/01/26 08:17:54;;;;;;;3.70;1.50;;;;;;;5.75;61.40;99935.21;105713;1254;60817;-62
2024/01/26 08:20:22;;;;;;;3.90;1.10;;;;;;;5.76;61.15;99936.92;105078;1262;59742;-62
2024/01/26 08:22:50;;;;;;;5.20;1.60;;;;;;;5.78;61.19;99944.27;105985;1259;64467;-61
2024/01/26 08:25:18;;;;;;;5.10;2.10;;;;;;;5.82;61.20;99944.36;105849;1257;61392;-63
2024/01/26 08:27:46;;;;;;;7.60;4.80;;;;;;;5.85;61.40;99947.10;105170;1262;63756;-63
2024/01/26 08:30:15;;;;;;;6.30;2.20;;;;;;;5.91;61.46;99949.47;105119;1260;60019;-63
2024/01/26 08:32:43;;;;;;;6.60;2.60;;;;;;;5.95;61.31;99950.43;105199;1257;59695;-61
2024/01/26 08:35:11;;;;;;;9.60;2.80;;;;;;;5.94;61.00;99951.52;105973;1254;63002;-57
2024/01/26 08:37:40;;;;;;;5.60;2.40;;;;;;;5.93;60.91;99950.77;105176;1254;61352;-61
2024/01/26 08:40:09;;;;;;;9.10;2.80;;;;;;;5.86;60.95;99953.11;104940;1257;62571;-61
2024/01/26 08:42:37;;;;;;;5.80;2.70;;;;;;;5.81;60.93;99955.94;106300;1260;59609;-62
2024/01/26 08:45:05;;;;;;;9.00;3.10;;;;;;;5.75;60.90;99954.04;105115;1260;59726;-61
2024/01/26 08:47:33;;;;;;;9.10;3.40;;;;;;;5.75;60.91;99952.10;107166;1259;66376;-63
2024/01/26 08:50:00;;;;;;;7.40;3.20;;;;;;;5.82;60.89;99954.43;105535;1254;61355;-62
2024/01/26 08:52:28;;;;;;;7.30;3.40;;;;;;;5.86;60.80;99956.45;105659;1260;62614;-63
2024/01/26 08:54:55;;;;;;;9.80;5.00;;;;;;;5.84;60.77;99961.12;104949;1255;59768;-64
2024/01/26 08:57:23;;;;;;;8.60;3.40;;;;;;;5.78;60.71;99966.33;105118;1262;59654;-64
2024/01/26 08:59:51;;;;;;;6.60;2.70;;;;;;;5.73;60.56;99967.58;104929;1260;66954;-62
2024/01/26 09:02:19;;;;;;;5.80;2.40;;;;;;;5.66;60.46;99974.16;105148;1254;61955;-63
2024/01/26 09:04:47;;;;;;;6.20;1.80;;;;;;;5.62;60.41;99971.92;104919;1263;65970;-63
2024/01/26 09:07:17;;;;;;;10.60;2.30;;;;;;;5.66;60.14;99974.31;104806;1254;60478;-63
2024/01/26 09:09:45;;;;;;;4.40;1.50;;;;;;;5.66;59.74;99971.17;108856;1254;59423;-62
2024/01/26 09:12:13;;;;;;;5.90;1.70;;;;;;;5.62;59.43;99971.80;105931;1260;63629;-64
2024/01/26 09:14:41;;;;;;;4.30;1.50;;;;;;;5.60;59.37;99978.49;104885;1257;61553;-61
2024/01/26 09:17:09;;;;;;;4.00;1.10;;;;;;;5.50;59.18;99980.73;104710;1257;62639;-62
2024/01/26 09:19:36;;;;;;;5.20;1.60;;;;;;;5.41;59.26;99979.92;104876;1266;60444;-63
2024/01/26 09:22:06;;;;;;;4.20;1.50;;;;;;;5.38;59.49;99977.64;105263;1259;60299;-62
2024/01/26 09:24:34;;;;;;;4.20;1.20;;;;;;;5.37;59.56;99979.83;105153;1261;64965;-61
2024/01/26 09:27:03;;;;;;;3.50;1.00;;;;;;;5.31;59.54;99983.66;105010;1257;61769;-61
2024/01/26 09:29:31;;;;;;;3.30;1.20;;;;;;;5.23;59.70;99981.60;105357;1260;62454;-63
2024/01/26 09:31:59;;;;;;;3.00;1.10;;;;;;;5.16;59.87;99981.38;105109;1255;60585;-60
2024/01/26 09:34:27;;;;;;;2.80;0.90;;;;;;;5.10;59.88;99986.06;105564;1260;60703;-64
2024/01/26 09:36:55;;;;;;;3.40;1.00;;;;;;;5.15;59.99;99985.75;106443;1261;64949;-61
2024/01/26 09:39:24;;;;;;;3.70;1.30;;;;;;;5.19;59.90;99987.23;105899;1260;61422;-63
2024/01/26 09:41:52;;;;;;;3.20;1.10;;;;;;;5.18;59.97;99986.63;105692;1260;74697;-61
2024/01/26 09:44:20;;;;;;;4.20;1.10;;;;;;;5.16;59.78;99989.02;108276;1257;60588;-60
2024/01/26 09:46:47;;;;;;;3.80;1.10;;;;;;;5.13;59.75;99992.30;105130;1257;60441;-63
2024/01/26 09:49:15;;;;;;;3.20;1.30;;;;;;;5.09;59.84;99993.61;105037;1254;63784;-61
2024/01/26 09:51:43;;;;;;;3.30;1.30;;;;;;;5.10;59.69;99993.75;105193;1260;60379;-63
2024/01/26 09:54:10;;;;;;;4.60;1.10;;;;;;;5.09;59.59;99993.11;105148;1262;63948;-61
2024/01/26 09:56:38;;;;;;;4.90;2.00;;;;;;;5.08;59.66;99988.84;105015;1258;60472;-65
2024/01/26 09:59:07;;;;;;;4.20;1.00;;;;;;;5.04;59.72;99983.85;104777;1259;61068;-61
2024/01/26 10:01:34;;;;;;;2.70;0.90;;;;;;;5.07;59.78;99988.55;106128;1254;64933;-63
2024/01/26 10:04:02;;;;;;;3.00;1.00;;;;;;;5.14;59.72;99987.58;105257;1262;60359;-63
2024/01/26 10:06:30;;;;;;;2.10;0.70;;;;;;;5.17;59.80;99992.73;104808;1260;64834;-62
2024/01/26 10:08:58;;;;;;;4.30;1.50;;;;;;;5.22;59.97;99994.38;104937;1254;60547;-66
2024/01/26 10:11:27;;;;;;;3.70;1.40;;;;;;;5.22;59.83;99995.25;104670;1257;60579;-64
2024/01/26 10:13:55;;;;;;;5.40;1.90;;;;;;;5.23;59.78;99989.42;107193;1259;65454;-64
2024/01/26 10:16:22;;;;;;;4.60;1.40;;;;;;;5.31;59.61;99995.50;105039;1254;63774;-64
2024/01/26 10:18:50;;;;;;;6.50;1.60;;;;;;;5.35;59.63;99994.70;105221;1254;64198;-64
2024/01/26 10:21:20;;;;;;;4.40;1.60;;;;;;;5.36;59.63;99994.71;104868;1259;60561;-64
2024/01/26 10:23:49;;;;;;;4.00;1.30;;;;;;;5.32;59.60;99994.61;105138;1256;60544;-64
2024/01/26 10:26:18;;;;;;;4.10;1.40;;;;;;;5.29;59.74;100000.67;105148;1260;65299;-64
2024/01/26 10:28:48;;;;;;;3.20;1.20;;;;;;;5.30;59.81;100002.38;105247;1260;70265;-63
2024/01/26 10:31:16;;;;;;;4.80;1.70;;;;;;;5.28;59.52;100003.86;105135;1259;62592;-64
2024/01/26 10:33:45;;;;;;;3.70;1.00;;;;;;;5.25;59.43;100004.09;106822;1260;60716;-65
2024/01/26 10:36:13;;;;;;;5.20;1.60;;;;;;;5.23;59.53;100011.85;105104;1260;61759;-64
2024/01/26 10:38:42;;;;;;;4.60;1.50;;;;;;;5.26;59.64;100012.75;105219;1262;65324;-62
2024/01/26 10:41:12;;;;;;;5.20;1.20;;;;;;;5.35;59.47;100014.59;104842;1257;61376;-65
2024/01/26 10:43:39;;;;;;;5.20;1.60;;;;;;;5.43;59.48;100021.04;105599;1262;62965;-64
2024/01/26 10:46:07;;;;;;;3.60;1.70;;;;;;;5.46;59.34;100021.21;105018;1257;60566;-63
2024/01/26 10:48:35;;;;;;;3.30;0.90;;;;;;;5.47;59.18;100022.69;105150;1260;60478;-65
2024/01/26 10:51:03;;;;;;;3.30;0.90;;;;;;;5.48;59.27;100025.23;105004;1260;74142;-61
2024/01/26 10:53:31;;;;;;;3.20;1.00;;;;;;;5.47;59.29;100027.23;105388;1256;62457;-64
2024/01/26 10:56:01;;;;;;;4.40;1.40;;;;;;;5.50;59.22;100028.95;105521;1260;65857;-63
2024/01/26 10:58:29;;;;;;;4.10;1.10;;;;;;;5.58;59.07;100030.85;106210;1258;60495;-62
2024/01/26 11:00:57;;;;;;;2.80;0.60;;;;;;;5.63;58.71;100032.96;105648;1258;63471;-62
2024/01/26 11:03:25;;;;;;;3.10;0.90;;;;;;;5.66;58.51;100037.44;105451;1262;65735;-61
2024/01/26 11:05:54;;;;;;;3.30;0.80;;;;;;;5.65;58.33;100038.38;105790;1260;60448;-62
2024/01/26 11:08:25;;;;;;;4.10;1.20;;;;;;;5.60;58.14;100038.17;105165;1260;62597;-63
2024/01/26 11:10:56;;;;;;;3.20;1.10;;;;;;;5.56;57.98;100042.11;105782;1256;60501;-58
2024/01/26 11:13:24;;;;;;;2.70;0.70;;;;;;;5.46;57.96;100048.17;105536;1260;60974;-60
2024/01/26 11:15:52;;;;;;;4.70;1.40;;;;;;;5.45;57.99;100050.84;105704;1260;76064;-63
2024/01/26 11:18:23;;;;;;;3.20;0.70;;;;;;;5.44;58.00;100052.80;105159;1260;61417;-65
2024/01/26 11:20:51;;;;;;;4.20;1.00;;;;;;;5.44;58.26;100054.73;105756;1260;63869;-66
2024/01/26 11:23:18;;;;;;;6.10;1.10;;;;;;;5.41;58.42;100055.95;105747;1260;62609;-64
2024/01/26 11:25:49;;;;;;;1.90;0.70;;;;;;;5.37;58.50;100050.59;105072;1260;61122;-63
2024/01/26 11:28:24;;;;;;;3.10;1.00;;;;;;;5.34;58.57;100052.16;105048;1260;66236;-64
2024/01/26 11:30:53;;;;;;;3.80;1.20;;;;;;;5.38;58.55;100053.68;105722;1254;71504;-64
2024/01/26 11:33:24;;;;;;;2.20;0.70;;;;;;;5.45;58.68;100053.98;105044;1257;67001;-63
2024/01/26 11:36:03;;;;;;;6.30;1.60;;;;;;;5.46;58.68;100055.95;105730;1260;60566;-63
2024/01/26 11:38:32;;;;;;;3.80;1.00;;;;;;;5.44;58.78;100059.77;105106;1254;62410;-62
2024/01/26 11:41:00;;;;;;;8.10;1.80;;;;;;;5.38;58.96;100065.69;105662;1260;65444;-61
2024/01/26 11:43:28;;;;;;;5.00;1.50;;;;;;;5.35;59.09;100066.42;105777;1262;60595;-61
2024/01/26 11:45:56;;;;;;;3.50;1.30;;;;;;;5.37;59.24;100069.76;105696;1260;63844;-62
2024/01/26 11:48:24;;;;;;;6.80;2.10;;;;;;;5.39;59.18;100073.95;104946;1258;60483;-64